PTSHY SBBW-SBPJ
Flight info
| Callsign | PTSHY |
|---|---|
| Flight time | 2h 14m |
| Altitude | 7000 |
| Route | 1317S05010W 1144S04905W |
| Aircraft | E110/L-SDG/C |
Departure
| Time | 2026-04-27 20:11 |
|---|---|
| Airport | Barra do Garças Airport (SBBW) |
Arrival
| Time | 2026-04-27 22:25 |
|---|---|
| Airport | Brigadeiro Lysias Rodrigues Airport (SBPJ) |
| Time | Latitude | Longitude | Altitude | Speed | Heading |
|---|---|---|---|---|---|
| 2026-04-27 19:58 | -15.85948 | -52.39037 | 1195 ft | 0 kts | 50° |
| 2026-04-27 20:03 | -15.85948 | -52.39036 | 1195 ft | 1 kts | 50° |
| 2026-04-27 20:03 | -15.85937 | -52.39022 | 1195 ft | 3 kts | 53° |
| 2026-04-27 20:04 | -15.85937 | -52.38988 | 1195 ft | 6 kts | 118° |
| 2026-04-27 20:04 | -15.85966 | -52.38947 | 1194 ft | 8 kts | 156° |
| 2026-04-27 20:04 | -15.86023 | -52.38988 | 1195 ft | 11 kts | 233° |
| 2026-04-27 20:04 | -15.86062 | -52.39037 | 1195 ft | 13 kts | 227° |
| 2026-04-27 20:05 | -15.86155 | -52.39151 | 1195 ft | 13 kts | 232° |
| 2026-04-27 20:05 | -15.86208 | -52.39216 | 1194 ft | 10 kts | 226° |
| 2026-04-27 20:05 | -15.86257 | -52.39226 | 1193 ft | 7 kts | 170° |
| 2026-04-27 20:05 | -15.86293 | -52.39201 | 1193 ft | 4 kts | 132° |
| 2026-04-27 20:06 | -15.86297 | -52.39196 | 1193 ft | 1 kts | 133° |
| 2026-04-27 20:06 | -15.86316 | -52.39180 | 1192 ft | 6 kts | 147° |
| 2026-04-27 20:06 | -15.86322 | -52.39128 | 1192 ft | 11 kts | 50° |
| 2026-04-27 20:06 | -15.86264 | -52.39056 | 1193 ft | 14 kts | 52° |
| 2026-04-27 20:07 | -15.86189 | -52.38960 | 1193 ft | 18 kts | 50° |
| 2026-04-27 20:07 | -15.86099 | -52.38846 | 1192 ft | 21 kts | 49° |
| 2026-04-27 20:07 | -15.86013 | -52.38738 | 1191 ft | 16 kts | 51° |
| 2026-04-27 20:07 | -15.85937 | -52.38641 | 1189 ft | 15 kts | 51° |
| 2026-04-27 20:08 | -15.85857 | -52.38544 | 1187 ft | 19 kts | 53° |
| 2026-04-27 20:08 | -15.85771 | -52.38434 | 1183 ft | 15 kts | 47° |
| 2026-04-27 20:08 | -15.85724 | -52.38384 | 1181 ft | 9 kts | 44° |
| 2026-04-27 20:08 | -15.85673 | -52.38340 | 1180 ft | 10 kts | 92° |
| 2026-04-27 20:09 | -15.85704 | -52.38344 | 1181 ft | 7 kts | 242° |
| 2026-04-27 20:09 | -15.85726 | -52.38373 | 1181 ft | 9 kts | 229° |
| 2026-04-27 20:09 | -15.85925 | -52.38623 | 1189 ft | 75 kts | 231° |
| 2026-04-27 20:09 | -15.86349 | -52.39158 | 1194 ft | 113 kts | 230° |
| 2026-04-27 20:10 | -15.86909 | -52.39713 | 1306 ft | 112 kts | 213° |
| 2026-04-27 20:10 | -15.87580 | -52.40109 | 1405 ft | 118 kts | 199° |
| 2026-04-27 20:10 | -15.88377 | -52.40132 | 1506 ft | 122 kts | 163° |
| 2026-04-27 20:10 | -15.89113 | -52.39696 | 1619 ft | 123 kts | 128° |
| 2026-04-27 20:11 | -15.89529 | -52.38899 | 1715 ft | 126 kts | 102° |
| 2026-04-27 20:11 | -15.89597 | -52.37993 | 1864 ft | 123 kts | 75° |
| 2026-04-27 20:11 | -15.89127 | -52.37273 | 1938 ft | 123 kts | 27° |
| 2026-04-27 20:11 | -15.88299 | -52.37035 | 2038 ft | 125 kts | 8° |
| 2026-04-27 20:12 | -15.87410 | -52.36881 | 2125 ft | 130 kts | 8° |
| 2026-04-27 20:12 | -15.86791 | -52.36774 | 2207 ft | 135 kts | 8° |
| 2026-04-27 20:12 | -15.85510 | -52.36551 | 2409 ft | 142 kts | 9° |
| 2026-04-27 20:12 | -15.84506 | -52.36375 | 2544 ft | 147 kts | 10° |
| 2026-04-27 20:13 | -15.83521 | -52.36081 | 2697 ft | 149 kts | 23° |
| 2026-04-27 20:13 | -15.82567 | -52.35565 | 2865 ft | 150 kts | 31° |
| 2026-04-27 20:13 | -15.81677 | -52.34948 | 2986 ft | 154 kts | 36° |
| 2026-04-27 20:13 | -15.80813 | -52.34272 | 3121 ft | 156 kts | 38° |
| 2026-04-27 20:14 | -15.79949 | -52.33554 | 3268 ft | 156 kts | 39° |
| 2026-04-27 20:14 | -15.79117 | -52.32845 | 3409 ft | 157 kts | 40° |
| 2026-04-27 20:14 | -15.78280 | -52.32121 | 3557 ft | 157 kts | 40° |
| 2026-04-27 20:14 | -15.77431 | -52.31383 | 3707 ft | 157 kts | 40° |
| 2026-04-27 20:15 | -15.76599 | -52.30656 | 3853 ft | 156 kts | 40° |
| 2026-04-27 20:15 | -15.75762 | -52.29925 | 4002 ft | 155 kts | 40° |
| 2026-04-27 20:15 | -15.74931 | -52.29198 | 4146 ft | 155 kts | 40° |
| 2026-04-27 20:15 | -15.74099 | -52.28470 | 4285 ft | 156 kts | 40° |
| 2026-04-27 20:16 | -15.73268 | -52.27743 | 4424 ft | 155 kts | 41° |
| 2026-04-27 20:16 | -15.72437 | -52.27016 | 4549 ft | 156 kts | 41° |
| 2026-04-27 20:16 | -15.71598 | -52.26282 | 4674 ft | 157 kts | 41° |
| 2026-04-27 20:16 | -15.70758 | -52.25547 | 4807 ft | 156 kts | 41° |
| 2026-04-27 20:17 | -15.69908 | -52.24804 | 4919 ft | 158 kts | 41° |
| 2026-04-27 20:17 | -15.69068 | -52.24068 | 5046 ft | 157 kts | 41° |
| 2026-04-27 20:17 | -15.68227 | -52.23333 | 5182 ft | 157 kts | 41° |
| 2026-04-27 20:17 | -15.67671 | -52.22847 | 5273 ft | 156 kts | 41° |
| 2026-04-27 20:18 | -15.66557 | -52.21873 | 5441 ft | 156 kts | 41° |
| 2026-04-27 20:18 | -15.65717 | -52.21139 | 5570 ft | 156 kts | 41° |
| 2026-04-27 20:18 | -15.64888 | -52.20414 | 5692 ft | 156 kts | 41° |
| 2026-04-27 20:18 | -15.64048 | -52.19680 | 5818 ft | 155 kts | 41° |
| 2026-04-27 20:19 | -15.63215 | -52.18952 | 5945 ft | 155 kts | 41° |
| 2026-04-27 20:19 | -15.62387 | -52.18229 | 6067 ft | 155 kts | 41° |
| 2026-04-27 20:19 | -15.61563 | -52.17509 | 6190 ft | 155 kts | 42° |
| 2026-04-27 20:19 | -15.60728 | -52.16779 | 6312 ft | 155 kts | 42° |
| 2026-04-27 20:20 | -15.59902 | -52.16058 | 6430 ft | 155 kts | 42° |
| 2026-04-27 20:20 | -15.59071 | -52.15332 | 6544 ft | 155 kts | 42° |
| 2026-04-27 20:20 | -15.58238 | -52.14604 | 6656 ft | 156 kts | 42° |
| 2026-04-27 20:20 | -15.57403 | -52.13876 | 6766 ft | 156 kts | 41° |
| 2026-04-27 20:21 | -15.56567 | -52.13145 | 6875 ft | 156 kts | 41° |
| 2026-04-27 20:21 | -15.55732 | -52.12416 | 6984 ft | 157 kts | 41° |
| 2026-04-27 20:21 | -15.54895 | -52.11686 | 7094 ft | 157 kts | 41° |
| 2026-04-27 20:21 | -15.54046 | -52.10945 | 7201 ft | 157 kts | 41° |
| 2026-04-27 20:22 | -15.53204 | -52.10210 | 7283 ft | 159 kts | 41° |
| 2026-04-27 20:22 | -15.52355 | -52.09468 | 7322 ft | 162 kts | 41° |
| 2026-04-27 20:22 | -15.51525 | -52.08744 | 7491 ft | 156 kts | 41° |
| 2026-04-27 20:22 | -15.50697 | -52.08023 | 7543 ft | 161 kts | 42° |
| 2026-04-27 20:23 | -15.49750 | -52.07194 | 7251 ft | 185 kts | 41° |
| 2026-04-27 20:23 | -15.48694 | -52.06272 | 6826 ft | 207 kts | 41° |
| 2026-04-27 20:23 | -15.47596 | -52.05318 | 6852 ft | 199 kts | 41° |
| 2026-04-27 20:23 | -15.46551 | -52.04411 | 6989 ft | 190 kts | 41° |
| 2026-04-27 20:24 | -15.45528 | -52.03522 | 6998 ft | 191 kts | 41° |
| 2026-04-27 20:24 | -15.44501 | -52.02628 | 6976 ft | 193 kts | 41° |
| 2026-04-27 20:24 | -15.43468 | -52.01729 | 6972 ft | 193 kts | 41° |
| 2026-04-27 20:24 | -15.42431 | -52.00826 | 6970 ft | 193 kts | 41° |
| 2026-04-27 20:25 | -15.41398 | -51.99926 | 6977 ft | 193 kts | 41° |
| 2026-04-27 20:25 | -15.40375 | -51.99035 | 6977 ft | 193 kts | 41° |
| 2026-04-27 20:25 | -15.39344 | -51.98137 | 6973 ft | 194 kts | 41° |
| 2026-04-27 20:25 | -15.38284 | -51.97214 | 6973 ft | 193 kts | 42° |
| 2026-04-27 20:26 | -15.37586 | -51.96606 | 6975 ft | 194 kts | 41° |
| 2026-04-27 20:26 | -15.36191 | -51.95392 | 6973 ft | 194 kts | 42° |
| 2026-04-27 20:26 | -15.35155 | -51.94489 | 6976 ft | 194 kts | 42° |
| 2026-04-27 20:26 | -15.34152 | -51.93616 | 6971 ft | 194 kts | 41° |
| 2026-04-27 20:27 | -15.33111 | -51.92709 | 6964 ft | 194 kts | 41° |
| 2026-04-27 20:27 | -15.32073 | -51.91806 | 6972 ft | 193 kts | 41° |
| 2026-04-27 20:27 | -15.31023 | -51.90892 | 6973 ft | 194 kts | 41° |
| 2026-04-27 20:27 | -15.29985 | -51.89989 | 6972 ft | 194 kts | 41° |
| 2026-04-27 20:28 | -15.28932 | -51.89073 | 6973 ft | 194 kts | 41° |
| 2026-04-27 20:28 | -15.27896 | -51.88172 | 6970 ft | 194 kts | 41° |
| 2026-04-27 20:28 | -15.26846 | -51.87259 | 6973 ft | 194 kts | 41° |
| 2026-04-27 20:28 | -15.26143 | -51.86647 | 6968 ft | 194 kts | 41° |
| 2026-04-27 20:29 | -15.24761 | -51.85445 | 6966 ft | 194 kts | 41° |
| 2026-04-27 20:29 | -15.23718 | -51.84539 | 6963 ft | 193 kts | 41° |
| 2026-04-27 20:29 | -15.22680 | -51.83637 | 6966 ft | 193 kts | 41° |
| 2026-04-27 20:29 | -15.21646 | -51.82738 | 6965 ft | 193 kts | 41° |
| 2026-04-27 20:30 | -15.20611 | -51.81839 | 6968 ft | 193 kts | 41° |
| 2026-04-27 20:30 | -15.19564 | -51.80930 | 6965 ft | 193 kts | 41° |
| 2026-04-27 20:30 | -15.18531 | -51.80032 | 6967 ft | 193 kts | 41° |
| 2026-04-27 20:30 | -15.17497 | -51.79133 | 6964 ft | 193 kts | 41° |
| 2026-04-27 20:31 | -15.16449 | -51.78222 | 6954 ft | 194 kts | 41° |
| 2026-04-27 20:31 | -15.15407 | -51.77317 | 6958 ft | 193 kts | 41° |
| 2026-04-27 20:31 | -15.14386 | -51.76431 | 6957 ft | 193 kts | 41° |
| 2026-04-27 20:31 | -15.13336 | -51.75520 | 6963 ft | 193 kts | 41° |
| 2026-04-27 20:32 | -15.12281 | -51.74603 | 6968 ft | 193 kts | 41° |
| 2026-04-27 20:32 | -15.11255 | -51.73712 | 6966 ft | 193 kts | 41° |
| 2026-04-27 20:32 | -15.10210 | -51.72807 | 6964 ft | 193 kts | 41° |
| 2026-04-27 20:32 | -15.09178 | -51.71912 | 6965 ft | 193 kts | 41° |
| 2026-04-27 20:33 | -15.08139 | -51.71010 | 6966 ft | 192 kts | 41° |
| 2026-04-27 20:33 | -15.07106 | -51.70114 | 6964 ft | 192 kts | 41° |
| 2026-04-27 20:33 | -15.06075 | -51.69218 | 6962 ft | 192 kts | 41° |
| 2026-04-27 20:33 | -15.05035 | -51.68316 | 6961 ft | 192 kts | 41° |
| 2026-04-27 20:34 | -15.04005 | -51.67424 | 6966 ft | 192 kts | 40° |
| 2026-04-27 20:34 | -15.02978 | -51.66533 | 6969 ft | 192 kts | 40° |
| 2026-04-27 20:34 | -15.01950 | -51.65641 | 6964 ft | 192 kts | 40° |
| 2026-04-27 20:34 | -15.00920 | -51.64749 | 6963 ft | 193 kts | 41° |
| 2026-04-27 20:35 | -14.99887 | -51.63854 | 6964 ft | 193 kts | 41° |
| 2026-04-27 20:35 | -14.98839 | -51.62945 | 6963 ft | 193 kts | 40° |
| 2026-04-27 20:35 | -14.97818 | -51.62060 | 6961 ft | 192 kts | 40° |
| 2026-04-27 20:35 | -14.96777 | -51.61158 | 6965 ft | 192 kts | 40° |
| 2026-04-27 20:36 | -14.95756 | -51.60274 | 6965 ft | 192 kts | 41° |
| 2026-04-27 20:36 | -14.94721 | -51.59377 | 6965 ft | 192 kts | 41° |
| 2026-04-27 20:36 | -14.93679 | -51.58475 | 6961 ft | 192 kts | 41° |
| 2026-04-27 20:36 | -14.92651 | -51.57585 | 6961 ft | 192 kts | 41° |
| 2026-04-27 20:37 | -14.91624 | -51.56696 | 6966 ft | 192 kts | 41° |
| 2026-04-27 20:37 | -14.90590 | -51.55800 | 6969 ft | 192 kts | 40° |
| 2026-04-27 20:37 | -14.89557 | -51.54905 | 6964 ft | 193 kts | 40° |
| 2026-04-27 20:37 | -14.88512 | -51.54001 | 6965 ft | 193 kts | 40° |
| 2026-04-27 20:38 | -14.87468 | -51.53098 | 6963 ft | 193 kts | 40° |
| 2026-04-27 20:38 | -14.86433 | -51.52203 | 6962 ft | 193 kts | 40° |
| 2026-04-27 20:38 | -14.85398 | -51.51307 | 6958 ft | 193 kts | 40° |
| 2026-04-27 20:38 | -14.84360 | -51.50410 | 6960 ft | 192 kts | 40° |
| 2026-04-27 20:39 | -14.83325 | -51.49514 | 6967 ft | 192 kts | 40° |
| 2026-04-27 20:39 | -14.82292 | -51.48621 | 6964 ft | 192 kts | 40° |
| 2026-04-27 20:39 | -14.81263 | -51.47732 | 6967 ft | 192 kts | 40° |
| 2026-04-27 20:39 | -14.80234 | -51.46842 | 6969 ft | 192 kts | 40° |
| 2026-04-27 20:40 | -14.79207 | -51.45953 | 6968 ft | 193 kts | 40° |
| 2026-04-27 20:40 | -14.78163 | -51.45051 | 6968 ft | 193 kts | 40° |
| 2026-04-27 20:40 | -14.77131 | -51.44159 | 6969 ft | 193 kts | 40° |
| 2026-04-27 20:40 | -14.76095 | -51.43263 | 6965 ft | 193 kts | 40° |
| 2026-04-27 20:41 | -14.75059 | -51.42368 | 6962 ft | 193 kts | 40° |
| 2026-04-27 20:41 | -14.74027 | -51.41476 | 6963 ft | 193 kts | 40° |
| 2026-04-27 20:41 | -14.72992 | -51.40582 | 6965 ft | 193 kts | 40° |
| 2026-04-27 20:41 | -14.71965 | -51.39695 | 6967 ft | 193 kts | 40° |
| 2026-04-27 20:42 | -14.70923 | -51.38795 | 6963 ft | 193 kts | 40° |
| 2026-04-27 20:42 | -14.69889 | -51.37902 | 6959 ft | 193 kts | 40° |
| 2026-04-27 20:42 | -14.68844 | -51.37000 | 6959 ft | 193 kts | 40° |
| 2026-04-27 20:42 | -14.67819 | -51.36116 | 6956 ft | 192 kts | 40° |
| 2026-04-27 20:43 | -14.66785 | -51.35223 | 6956 ft | 192 kts | 40° |
| 2026-04-27 20:43 | -14.65741 | -51.34322 | 6958 ft | 192 kts | 40° |
| 2026-04-27 20:43 | -14.64693 | -51.33417 | 6951 ft | 192 kts | 40° |
| 2026-04-27 20:43 | -14.63688 | -51.32550 | 6946 ft | 192 kts | 40° |
| 2026-04-27 20:44 | -14.62656 | -51.31660 | 6949 ft | 192 kts | 40° |
| 2026-04-27 20:44 | -14.61619 | -51.30766 | 6951 ft | 192 kts | 40° |
| 2026-04-27 20:44 | -14.60923 | -51.30166 | 6951 ft | 192 kts | 40° |
| 2026-04-27 20:44 | -14.59546 | -51.28977 | 6954 ft | 193 kts | 40° |
| 2026-04-27 20:45 | -14.58854 | -51.28381 | 6950 ft | 193 kts | 40° |
| 2026-04-27 20:45 | -14.57456 | -51.27175 | 6946 ft | 193 kts | 40° |
| 2026-04-27 20:45 | -14.56418 | -51.26280 | 6953 ft | 193 kts | 40° |
| 2026-04-27 20:45 | -14.55411 | -51.25413 | 6950 ft | 193 kts | 40° |
| 2026-04-27 20:46 | -14.54366 | -51.24512 | 6944 ft | 193 kts | 40° |
| 2026-04-27 20:46 | -14.53332 | -51.23620 | 6940 ft | 193 kts | 40° |
| 2026-04-27 20:46 | -14.52294 | -51.22727 | 6944 ft | 193 kts | 40° |
| 2026-04-27 20:46 | -14.51283 | -51.21856 | 6954 ft | 193 kts | 40° |
| 2026-04-27 20:47 | -14.50239 | -51.20956 | 6954 ft | 193 kts | 40° |
| 2026-04-27 20:47 | -14.49198 | -51.20059 | 6941 ft | 194 kts | 40° |
| 2026-04-27 20:47 | -14.48159 | -51.19164 | 6942 ft | 194 kts | 40° |
| 2026-04-27 20:47 | -14.47129 | -51.18277 | 6940 ft | 194 kts | 40° |
| 2026-04-27 20:48 | -14.46076 | -51.17371 | 6943 ft | 193 kts | 40° |
| 2026-04-27 20:48 | -14.45379 | -51.16771 | 6942 ft | 193 kts | 40° |
| 2026-04-27 20:48 | -14.43992 | -51.15577 | 6944 ft | 193 kts | 40° |
| 2026-04-27 20:48 | -14.42942 | -51.14674 | 6947 ft | 193 kts | 40° |
| 2026-04-27 20:49 | -14.41915 | -51.13789 | 6943 ft | 193 kts | 40° |
| 2026-04-27 20:49 | -14.40861 | -51.12883 | 6940 ft | 193 kts | 40° |
| 2026-04-27 20:49 | -14.39823 | -51.11990 | 6947 ft | 193 kts | 40° |
| 2026-04-27 20:49 | -14.38801 | -51.11111 | 6953 ft | 192 kts | 40° |
| 2026-04-27 20:50 | -14.37763 | -51.10218 | 6954 ft | 193 kts | 40° |
| 2026-04-27 20:50 | -14.36729 | -51.09330 | 6952 ft | 193 kts | 40° |
| 2026-04-27 20:50 | -14.35688 | -51.08433 | 6955 ft | 193 kts | 40° |
| 2026-04-27 20:50 | -14.34649 | -51.07540 | 6959 ft | 193 kts | 40° |
| 2026-04-27 20:51 | -14.33616 | -51.06651 | 6954 ft | 193 kts | 40° |
| 2026-04-27 20:51 | -14.32577 | -51.05759 | 6951 ft | 194 kts | 40° |
| 2026-04-27 20:51 | -14.31538 | -51.04866 | 6948 ft | 194 kts | 40° |
| 2026-04-27 20:51 | -14.30495 | -51.03970 | 6951 ft | 193 kts | 40° |
| 2026-04-27 20:52 | -14.29452 | -51.03073 | 6955 ft | 194 kts | 40° |
| 2026-04-27 20:52 | -14.28402 | -51.02171 | 6955 ft | 194 kts | 40° |
| 2026-04-27 20:52 | -14.27367 | -51.01282 | 6947 ft | 194 kts | 40° |
| 2026-04-27 20:52 | -14.26320 | -51.00382 | 6945 ft | 194 kts | 40° |
| 2026-04-27 20:53 | -14.25272 | -50.99482 | 6953 ft | 193 kts | 40° |
| 2026-04-27 20:53 | -14.24234 | -50.98591 | 6956 ft | 194 kts | 40° |
| 2026-04-27 20:53 | -14.23182 | -50.97688 | 6952 ft | 194 kts | 40° |
| 2026-04-27 20:53 | -14.22141 | -50.96794 | 6955 ft | 194 kts | 40° |
| 2026-04-27 20:54 | -14.20054 | -50.95003 | 6949 ft | 195 kts | 40° |
| 2026-04-27 20:54 | -14.19009 | -50.94106 | 6953 ft | 194 kts | 40° |
| 2026-04-27 20:54 | -14.17961 | -50.93207 | 6954 ft | 195 kts | 40° |
| 2026-04-27 20:55 | -14.16921 | -50.92314 | 6954 ft | 195 kts | 40° |
| 2026-04-27 20:55 | -14.15867 | -50.91410 | 6953 ft | 195 kts | 40° |
| 2026-04-27 20:55 | -14.14819 | -50.90511 | 6953 ft | 195 kts | 40° |
| 2026-04-27 20:55 | -14.13770 | -50.89611 | 6956 ft | 195 kts | 40° |
| 2026-04-27 20:56 | -14.12768 | -50.88751 | 6951 ft | 195 kts | 40° |
| 2026-04-27 20:56 | -14.11730 | -50.87862 | 6954 ft | 194 kts | 40° |
| 2026-04-27 20:56 | -14.10677 | -50.86959 | 6958 ft | 194 kts | 40° |
| 2026-04-27 20:56 | -14.09637 | -50.86068 | 6961 ft | 195 kts | 40° |
| 2026-04-27 20:57 | -14.08589 | -50.85169 | 6962 ft | 195 kts | 40° |
| 2026-04-27 20:57 | -14.07534 | -50.84265 | 6958 ft | 196 kts | 40° |
| 2026-04-27 20:57 | -14.06478 | -50.83360 | 6959 ft | 196 kts | 40° |
| 2026-04-27 20:57 | -14.05435 | -50.82467 | 6958 ft | 196 kts | 40° |
| 2026-04-27 20:58 | -14.04370 | -50.81554 | 6959 ft | 196 kts | 40° |
| 2026-04-27 20:58 | -14.03330 | -50.80663 | 6959 ft | 196 kts | 41° |
| 2026-04-27 20:58 | -14.02275 | -50.79759 | 6956 ft | 196 kts | 40° |
| 2026-04-27 20:58 | -14.01201 | -50.78839 | 6956 ft | 197 kts | 41° |
| 2026-04-27 20:59 | -14.00138 | -50.77929 | 6951 ft | 197 kts | 40° |
| 2026-04-27 20:59 | -13.99082 | -50.77025 | 6943 ft | 197 kts | 40° |
| 2026-04-27 20:59 | -13.98027 | -50.76121 | 6949 ft | 197 kts | 40° |
| 2026-04-27 20:59 | -13.96971 | -50.75218 | 6953 ft | 197 kts | 40° |
| 2026-04-27 21:00 | -13.95917 | -50.74315 | 6951 ft | 197 kts | 40° |
| 2026-04-27 21:00 | -13.94853 | -50.73405 | 6950 ft | 197 kts | 41° |
| 2026-04-27 21:00 | -13.93805 | -50.72509 | 6957 ft | 197 kts | 40° |
| 2026-04-27 21:00 | -13.92736 | -50.71594 | 6956 ft | 197 kts | 40° |
| 2026-04-27 21:01 | -13.91689 | -50.70697 | 6946 ft | 197 kts | 40° |
| 2026-04-27 21:01 | -13.90629 | -50.69791 | 6950 ft | 197 kts | 40° |
| 2026-04-27 21:01 | -13.89555 | -50.68873 | 6949 ft | 197 kts | 40° |
| 2026-04-27 21:01 | -13.88499 | -50.67969 | 6945 ft | 197 kts | 40° |
| 2026-04-27 21:02 | -13.87430 | -50.67055 | 6952 ft | 197 kts | 40° |
| 2026-04-27 21:02 | -13.86357 | -50.66138 | 6947 ft | 197 kts | 40° |
| 2026-04-27 21:02 | -13.85298 | -50.65232 | 6955 ft | 197 kts | 40° |
| 2026-04-27 21:02 | -13.84225 | -50.64316 | 6964 ft | 197 kts | 40° |
| 2026-04-27 21:03 | -13.83163 | -50.63408 | 6963 ft | 197 kts | 40° |
| 2026-04-27 21:03 | -13.82108 | -50.62506 | 6965 ft | 197 kts | 40° |
| 2026-04-27 21:03 | -13.81034 | -50.61589 | 6968 ft | 198 kts | 40° |
| 2026-04-27 21:03 | -13.79977 | -50.60686 | 6970 ft | 198 kts | 40° |
| 2026-04-27 21:04 | -13.78897 | -50.59763 | 6963 ft | 198 kts | 40° |
| 2026-04-27 21:04 | -13.77854 | -50.58873 | 6964 ft | 198 kts | 40° |
| 2026-04-27 21:04 | -13.76768 | -50.57945 | 6964 ft | 198 kts | 40° |
| 2026-04-27 21:04 | -13.75689 | -50.57023 | 6965 ft | 198 kts | 40° |
| 2026-04-27 21:05 | -13.74628 | -50.56118 | 6970 ft | 198 kts | 41° |
| 2026-04-27 21:05 | -13.73551 | -50.55199 | 6973 ft | 198 kts | 40° |
| 2026-04-27 21:05 | -13.72486 | -50.54290 | 6970 ft | 198 kts | 40° |
| 2026-04-27 21:05 | -13.71418 | -50.53378 | 6966 ft | 198 kts | 40° |
| 2026-04-27 21:06 | -13.70354 | -50.52470 | 6969 ft | 198 kts | 40° |
| 2026-04-27 21:06 | -13.69287 | -50.51559 | 6971 ft | 198 kts | 40° |
| 2026-04-27 21:06 | -13.68230 | -50.50658 | 6968 ft | 198 kts | 40° |
| 2026-04-27 21:06 | -13.67160 | -50.49744 | 6956 ft | 198 kts | 40° |
| 2026-04-27 21:07 | -13.66091 | -50.48833 | 6947 ft | 198 kts | 40° |
| 2026-04-27 21:07 | -13.65384 | -50.48230 | 6950 ft | 198 kts | 40° |
| 2026-04-27 21:07 | -13.63966 | -50.47021 | 6950 ft | 197 kts | 40° |
| 2026-04-27 21:07 | -13.62896 | -50.46109 | 6956 ft | 197 kts | 40° |
| 2026-04-27 21:08 | -13.61820 | -50.45192 | 6953 ft | 198 kts | 41° |
| 2026-04-27 21:08 | -13.60762 | -50.44290 | 6943 ft | 198 kts | 41° |
| 2026-04-27 21:08 | -13.59691 | -50.43377 | 6942 ft | 197 kts | 40° |
| 2026-04-27 21:08 | -13.58693 | -50.42526 | 6945 ft | 197 kts | 40° |
| 2026-04-27 21:09 | -13.57624 | -50.41615 | 6943 ft | 197 kts | 40° |
| 2026-04-27 21:09 | -13.56570 | -50.40718 | 6938 ft | 197 kts | 40° |
| 2026-04-27 21:09 | -13.55494 | -50.39801 | 6941 ft | 196 kts | 41° |
| 2026-04-27 21:09 | -13.54443 | -50.38906 | 6941 ft | 196 kts | 41° |
| 2026-04-27 21:10 | -13.53372 | -50.37994 | 6946 ft | 195 kts | 41° |
| 2026-04-27 21:10 | -13.52355 | -50.37128 | 6954 ft | 195 kts | 41° |
| 2026-04-27 21:10 | -13.51303 | -50.36232 | 6956 ft | 195 kts | 41° |
| 2026-04-27 21:10 | -13.50235 | -50.35323 | 6958 ft | 196 kts | 41° |
| 2026-04-27 21:11 | -13.49207 | -50.34447 | 6959 ft | 196 kts | 40° |
| 2026-04-27 21:11 | -13.48100 | -50.33505 | 6957 ft | 196 kts | 40° |
| 2026-04-27 21:11 | -13.47035 | -50.32599 | 6958 ft | 196 kts | 40° |
| 2026-04-27 21:11 | -13.46008 | -50.31725 | 6961 ft | 196 kts | 40° |
| 2026-04-27 21:12 | -13.44948 | -50.30822 | 6962 ft | 196 kts | 40° |
| 2026-04-27 21:12 | -13.43882 | -50.29916 | 6964 ft | 196 kts | 41° |
| 2026-04-27 21:12 | -13.42825 | -50.29017 | 6962 ft | 196 kts | 41° |
| 2026-04-27 21:12 | -13.41771 | -50.28120 | 6956 ft | 196 kts | 41° |
| 2026-04-27 21:13 | -13.40709 | -50.27217 | 6963 ft | 196 kts | 41° |
| 2026-04-27 21:13 | -13.39649 | -50.26315 | 6970 ft | 196 kts | 41° |
| 2026-04-27 21:13 | -13.38584 | -50.25410 | 6967 ft | 196 kts | 41° |
| 2026-04-27 21:13 | -13.37527 | -50.24510 | 6965 ft | 196 kts | 40° |
| 2026-04-27 21:14 | -13.36470 | -50.23612 | 6968 ft | 196 kts | 41° |
| 2026-04-27 21:14 | -13.35425 | -50.22724 | 6978 ft | 196 kts | 40° |
| 2026-04-27 21:14 | -13.34358 | -50.21817 | 6974 ft | 197 kts | 40° |
| 2026-04-27 21:14 | -13.33295 | -50.20914 | 6971 ft | 197 kts | 41° |
| 2026-04-27 21:15 | -13.32234 | -50.20012 | 6959 ft | 198 kts | 40° |
| 2026-04-27 21:15 | -13.31165 | -50.19104 | 6946 ft | 197 kts | 40° |
| 2026-04-27 21:15 | -13.30097 | -50.18196 | 6948 ft | 196 kts | 40° |
| 2026-04-27 21:15 | -13.29046 | -50.17304 | 6955 ft | 195 kts | 40° |
| 2026-04-27 21:16 | -13.27969 | -50.16445 | 6961 ft | 195 kts | 36° |
| 2026-04-27 21:16 | -13.26844 | -50.15649 | 6975 ft | 195 kts | 36° |
| 2026-04-27 21:16 | -13.25722 | -50.14859 | 6966 ft | 196 kts | 36° |
| 2026-04-27 21:16 | -13.24584 | -50.14058 | 6964 ft | 196 kts | 36° |
| 2026-04-27 21:17 | -13.23471 | -50.13275 | 6968 ft | 196 kts | 36° |
| 2026-04-27 21:17 | -13.22328 | -50.12468 | 6967 ft | 197 kts | 36° |
| 2026-04-27 21:17 | -13.21164 | -50.11649 | 6964 ft | 197 kts | 36° |
| 2026-04-27 21:17 | -13.20026 | -50.10848 | 6966 ft | 197 kts | 36° |
| 2026-04-27 21:18 | -13.18896 | -50.10053 | 6965 ft | 197 kts | 36° |
| 2026-04-27 21:18 | -13.17764 | -50.09257 | 6966 ft | 197 kts | 36° |
| 2026-04-27 21:18 | -13.16626 | -50.08456 | 6963 ft | 197 kts | 36° |
| 2026-04-27 21:18 | -13.15482 | -50.07651 | 6966 ft | 197 kts | 36° |
| 2026-04-27 21:19 | -13.14344 | -50.06851 | 6963 ft | 197 kts | 36° |
| 2026-04-27 21:19 | -13.13228 | -50.06067 | 6962 ft | 197 kts | 36° |
| 2026-04-27 21:19 | -13.12082 | -50.05261 | 6962 ft | 197 kts | 36° |
| 2026-04-27 21:20 | -13.09762 | -50.03630 | 6974 ft | 198 kts | 36° |
| 2026-04-27 21:20 | -13.08615 | -50.02824 | 6977 ft | 198 kts | 36° |
| 2026-04-27 21:20 | -13.07462 | -50.02013 | 6978 ft | 199 kts | 36° |
| 2026-04-27 21:20 | -13.06306 | -50.01201 | 6978 ft | 199 kts | 36° |
| 2026-04-27 21:21 | -13.05159 | -50.00395 | 6973 ft | 199 kts | 36° |
| 2026-04-27 21:21 | -13.03998 | -49.99579 | 6965 ft | 198 kts | 36° |
| 2026-04-27 21:21 | -13.02859 | -49.98779 | 6966 ft | 198 kts | 36° |
| 2026-04-27 21:21 | -13.01728 | -49.97985 | 6966 ft | 197 kts | 36° |
| 2026-04-27 21:22 | -13.00590 | -49.97186 | 6968 ft | 197 kts | 36° |
| 2026-04-27 21:22 | -12.99450 | -49.96386 | 6961 ft | 197 kts | 36° |
| 2026-04-27 21:22 | -12.98307 | -49.95583 | 6963 ft | 196 kts | 36° |
| 2026-04-27 21:22 | -12.97165 | -49.94781 | 6968 ft | 195 kts | 36° |
| 2026-04-27 21:23 | -12.96046 | -49.93996 | 6978 ft | 194 kts | 36° |
| 2026-04-27 21:23 | -12.94923 | -49.93208 | 6986 ft | 195 kts | 36° |
| 2026-04-27 21:23 | -12.93788 | -49.92411 | 6984 ft | 196 kts | 36° |
| 2026-04-27 21:23 | -12.92656 | -49.91617 | 6978 ft | 197 kts | 37° |
| 2026-04-27 21:24 | -12.91513 | -49.90815 | 6983 ft | 197 kts | 37° |
| 2026-04-27 21:24 | -12.90369 | -49.90012 | 6988 ft | 197 kts | 36° |
| 2026-04-27 21:24 | -12.89228 | -49.89211 | 6986 ft | 198 kts | 36° |
| 2026-04-27 21:24 | -12.88092 | -49.88414 | 6985 ft | 198 kts | 36° |
| 2026-04-27 21:25 | -12.86932 | -49.87600 | 6984 ft | 198 kts | 36° |
| 2026-04-27 21:25 | -12.85790 | -49.86800 | 6984 ft | 198 kts | 36° |
| 2026-04-27 21:25 | -12.84645 | -49.85997 | 6983 ft | 198 kts | 36° |
| 2026-04-27 21:25 | -12.83494 | -49.85191 | 6979 ft | 198 kts | 36° |
| 2026-04-27 21:26 | -12.82354 | -49.84391 | 6977 ft | 197 kts | 37° |
| 2026-04-27 21:26 | -12.81211 | -49.83590 | 6978 ft | 197 kts | 36° |
| 2026-04-27 21:26 | -12.80074 | -49.82793 | 6977 ft | 198 kts | 36° |
| 2026-04-27 21:26 | -12.78941 | -49.81999 | 6970 ft | 198 kts | 37° |
| 2026-04-27 21:27 | -12.77802 | -49.81200 | 6970 ft | 198 kts | 36° |
| 2026-04-27 21:27 | -12.76646 | -49.80390 | 6972 ft | 199 kts | 36° |
| 2026-04-27 21:27 | -12.75512 | -49.79596 | 6972 ft | 199 kts | 36° |
| 2026-04-27 21:27 | -12.74358 | -49.78788 | 6967 ft | 200 kts | 36° |
| 2026-04-27 21:28 | -12.73207 | -49.77981 | 6954 ft | 200 kts | 36° |
| 2026-04-27 21:28 | -12.72044 | -49.77167 | 6947 ft | 199 kts | 36° |
| 2026-04-27 21:28 | -12.70891 | -49.76360 | 6952 ft | 198 kts | 36° |
| 2026-04-27 21:28 | -12.69763 | -49.75570 | 6957 ft | 197 kts | 36° |
| 2026-04-27 21:29 | -12.68616 | -49.74767 | 6962 ft | 197 kts | 36° |
| 2026-04-27 21:29 | -12.67487 | -49.73977 | 6965 ft | 197 kts | 36° |
| 2026-04-27 21:29 | -12.66349 | -49.73181 | 6966 ft | 197 kts | 36° |
| 2026-04-27 21:29 | -12.65204 | -49.72379 | 6958 ft | 198 kts | 36° |
| 2026-04-27 21:30 | -12.64061 | -49.71579 | 6958 ft | 198 kts | 36° |
| 2026-04-27 21:30 | -12.62908 | -49.70773 | 6963 ft | 198 kts | 37° |
| 2026-04-27 21:30 | -12.61762 | -49.69970 | 6963 ft | 198 kts | 36° |
| 2026-04-27 21:30 | -12.60628 | -49.69177 | 6960 ft | 198 kts | 36° |
| 2026-04-27 21:31 | -12.59479 | -49.68374 | 6958 ft | 198 kts | 36° |
| 2026-04-27 21:31 | -12.58336 | -49.67574 | 6961 ft | 198 kts | 36° |
| 2026-04-27 21:31 | -12.57184 | -49.66769 | 6964 ft | 198 kts | 36° |
| 2026-04-27 21:31 | -12.56041 | -49.65969 | 6962 ft | 198 kts | 36° |
| 2026-04-27 21:32 | -12.54882 | -49.65159 | 6961 ft | 198 kts | 36° |
| 2026-04-27 21:32 | -12.53738 | -49.64359 | 6958 ft | 198 kts | 36° |
| 2026-04-27 21:32 | -12.52602 | -49.63565 | 6955 ft | 198 kts | 36° |
| 2026-04-27 21:32 | -12.51452 | -49.62761 | 6962 ft | 198 kts | 36° |
| 2026-04-27 21:33 | -12.50306 | -49.61960 | 6963 ft | 198 kts | 36° |
| 2026-04-27 21:33 | -12.49157 | -49.61158 | 6963 ft | 199 kts | 36° |
| 2026-04-27 21:33 | -12.48010 | -49.60356 | 6961 ft | 199 kts | 36° |
| 2026-04-27 21:33 | -12.46858 | -49.59552 | 6963 ft | 199 kts | 36° |
| 2026-04-27 21:34 | -12.45715 | -49.58753 | 6962 ft | 199 kts | 36° |
| 2026-04-27 21:34 | -12.44554 | -49.57941 | 6961 ft | 199 kts | 36° |
| 2026-04-27 21:34 | -12.43411 | -49.57143 | 6959 ft | 199 kts | 36° |
| 2026-04-27 21:34 | -12.42258 | -49.56338 | 6957 ft | 199 kts | 36° |
| 2026-04-27 21:35 | -12.41108 | -49.55535 | 6954 ft | 199 kts | 36° |
| 2026-04-27 21:35 | -12.39955 | -49.54730 | 6953 ft | 199 kts | 36° |
| 2026-04-27 21:35 | -12.38809 | -49.53930 | 6954 ft | 198 kts | 36° |
| 2026-04-27 21:35 | -12.37650 | -49.53122 | 6961 ft | 198 kts | 36° |
| 2026-04-27 21:36 | -12.36490 | -49.52311 | 6965 ft | 198 kts | 36° |
| 2026-04-27 21:36 | -12.35336 | -49.51506 | 6950 ft | 199 kts | 37° |
| 2026-04-27 21:36 | -12.34186 | -49.50704 | 6959 ft | 198 kts | 36° |
| 2026-04-27 21:36 | -12.33028 | -49.49896 | 6960 ft | 198 kts | 36° |
| 2026-04-27 21:37 | -12.31878 | -49.49094 | 6961 ft | 198 kts | 36° |
| 2026-04-27 21:37 | -12.30724 | -49.48288 | 6964 ft | 199 kts | 36° |
| 2026-04-27 21:37 | -12.29563 | -49.47478 | 6961 ft | 199 kts | 36° |
| 2026-04-27 21:37 | -12.28412 | -49.46676 | 6963 ft | 199 kts | 36° |
| 2026-04-27 21:38 | -12.27254 | -49.45869 | 6963 ft | 199 kts | 36° |
| 2026-04-27 21:38 | -12.26098 | -49.45063 | 6965 ft | 199 kts | 36° |
| 2026-04-27 21:38 | -12.24943 | -49.44257 | 6967 ft | 199 kts | 37° |
| 2026-04-27 21:38 | -12.23807 | -49.43466 | 6963 ft | 199 kts | 37° |
| 2026-04-27 21:39 | -12.22641 | -49.42652 | 6965 ft | 199 kts | 37° |
| 2026-04-27 21:39 | -12.21483 | -49.41846 | 6966 ft | 199 kts | 36° |
| 2026-04-27 21:39 | -12.20328 | -49.41041 | 6964 ft | 199 kts | 36° |
| 2026-04-27 21:39 | -12.19179 | -49.40240 | 6963 ft | 199 kts | 36° |
| 2026-04-27 21:40 | -12.18017 | -49.39430 | 6964 ft | 199 kts | 36° |
| 2026-04-27 21:40 | -12.16876 | -49.38634 | 6961 ft | 199 kts | 36° |
| 2026-04-27 21:40 | -12.15715 | -49.37826 | 6962 ft | 199 kts | 36° |
| 2026-04-27 21:40 | -12.14563 | -49.37024 | 6969 ft | 198 kts | 36° |
| 2026-04-27 21:41 | -12.13416 | -49.36225 | 6967 ft | 199 kts | 37° |
| 2026-04-27 21:41 | -12.12258 | -49.35419 | 6969 ft | 199 kts | 36° |
| 2026-04-27 21:41 | -12.11150 | -49.34648 | 6970 ft | 199 kts | 36° |
| 2026-04-27 21:41 | -12.10027 | -49.33867 | 6975 ft | 199 kts | 37° |
| 2026-04-27 21:42 | -12.08866 | -49.33058 | 6977 ft | 199 kts | 36° |
| 2026-04-27 21:42 | -12.07719 | -49.32259 | 6974 ft | 199 kts | 36° |
| 2026-04-27 21:42 | -12.06554 | -49.31448 | 6982 ft | 199 kts | 36° |
| 2026-04-27 21:42 | -12.05387 | -49.30636 | 6984 ft | 199 kts | 36° |
| 2026-04-27 21:43 | -12.04259 | -49.29850 | 6979 ft | 200 kts | 36° |
| 2026-04-27 21:43 | -12.03095 | -49.29041 | 6980 ft | 200 kts | 36° |
| 2026-04-27 21:43 | -12.01938 | -49.28236 | 6981 ft | 200 kts | 36° |
| 2026-04-27 21:43 | -12.00777 | -49.27428 | 6980 ft | 200 kts | 36° |
| 2026-04-27 21:44 | -11.99593 | -49.26606 | 6979 ft | 200 kts | 36° |
| 2026-04-27 21:44 | -11.98440 | -49.25803 | 6981 ft | 200 kts | 36° |
| 2026-04-27 21:44 | -11.97271 | -49.24990 | 6985 ft | 200 kts | 36° |
| 2026-04-27 21:44 | -11.96106 | -49.24181 | 6982 ft | 200 kts | 37° |
| 2026-04-27 21:45 | -11.94944 | -49.23373 | 6986 ft | 199 kts | 36° |
| 2026-04-27 21:45 | -11.93784 | -49.22567 | 6984 ft | 199 kts | 36° |
| 2026-04-27 21:45 | -11.92616 | -49.21754 | 6985 ft | 200 kts | 36° |
| 2026-04-27 21:45 | -11.91483 | -49.20966 | 6985 ft | 200 kts | 36° |
| 2026-04-27 21:46 | -11.90319 | -49.20158 | 6979 ft | 200 kts | 36° |
| 2026-04-27 21:46 | -11.89268 | -49.19427 | 6980 ft | 200 kts | 36° |
| 2026-04-27 21:46 | -11.88108 | -49.18621 | 6982 ft | 200 kts | 36° |
| 2026-04-27 21:46 | -11.87086 | -49.17911 | 6985 ft | 200 kts | 36° |
| 2026-04-27 21:47 | -11.86225 | -49.17313 | 6986 ft | 200 kts | 36° |
| 2026-04-27 21:47 | -11.85356 | -49.16709 | 6984 ft | 200 kts | 36° |
| 2026-04-27 21:47 | -11.84177 | -49.15890 | 6982 ft | 200 kts | 36° |
| 2026-04-27 21:47 | -11.83026 | -49.15091 | 6983 ft | 200 kts | 36° |
| 2026-04-27 21:48 | -11.81854 | -49.14277 | 6981 ft | 200 kts | 36° |
| 2026-04-27 21:48 | -11.80675 | -49.13458 | 6978 ft | 200 kts | 36° |
| 2026-04-27 21:48 | -11.79548 | -49.12676 | 6982 ft | 200 kts | 36° |
| 2026-04-27 21:48 | -11.78380 | -49.11865 | 6985 ft | 200 kts | 36° |
| 2026-04-27 21:49 | -11.77217 | -49.11058 | 6982 ft | 200 kts | 37° |
| 2026-04-27 21:49 | -11.76047 | -49.10246 | 6976 ft | 200 kts | 37° |
| 2026-04-27 21:49 | -11.74892 | -49.09443 | 6974 ft | 200 kts | 36° |
| 2026-04-27 21:49 | -11.73733 | -49.08640 | 6973 ft | 200 kts | 36° |
| 2026-04-27 21:50 | -11.72561 | -49.07973 | 6972 ft | 201 kts | 29° |
| 2026-04-27 21:50 | -11.71229 | -49.07297 | 6975 ft | 201 kts | 28° |
| 2026-04-27 21:50 | -11.69967 | -49.06658 | 6981 ft | 201 kts | 28° |
| 2026-04-27 21:50 | -11.68714 | -49.06025 | 6987 ft | 202 kts | 28° |
| 2026-04-27 21:51 | -11.67451 | -49.05386 | 6987 ft | 202 kts | 29° |
| 2026-04-27 21:51 | -11.66172 | -49.04739 | 6990 ft | 202 kts | 29° |
| 2026-04-27 21:51 | -11.64910 | -49.04102 | 6984 ft | 202 kts | 28° |
| 2026-04-27 21:51 | -11.63629 | -49.03455 | 6979 ft | 201 kts | 29° |
| 2026-04-27 21:52 | -11.62440 | -49.02855 | 6983 ft | 200 kts | 29° |
| 2026-04-27 21:52 | -11.61161 | -49.02208 | 6981 ft | 200 kts | 28° |
| 2026-04-27 21:52 | -11.59978 | -49.01611 | 6976 ft | 201 kts | 29° |
| 2026-04-27 21:52 | -11.58706 | -49.00969 | 6976 ft | 201 kts | 29° |
| 2026-04-27 21:53 | -11.57437 | -49.00328 | 6971 ft | 201 kts | 29° |
| 2026-04-27 21:53 | -11.56169 | -48.99688 | 6972 ft | 202 kts | 29° |
| 2026-04-27 21:53 | -11.54896 | -48.99045 | 6974 ft | 201 kts | 28° |
| 2026-04-27 21:53 | -11.53632 | -48.98407 | 6989 ft | 201 kts | 28° |
| 2026-04-27 21:54 | -11.52349 | -48.97759 | 6991 ft | 202 kts | 28° |
| 2026-04-27 21:54 | -11.51074 | -48.97116 | 6976 ft | 202 kts | 29° |
| 2026-04-27 21:54 | -11.49806 | -48.96477 | 6988 ft | 201 kts | 29° |
| 2026-04-27 21:54 | -11.48551 | -48.95844 | 6987 ft | 201 kts | 29° |
| 2026-04-27 21:55 | -11.47283 | -48.95203 | 6984 ft | 200 kts | 28° |
| 2026-04-27 21:55 | -11.46016 | -48.94564 | 6980 ft | 200 kts | 29° |
| 2026-04-27 21:55 | -11.44755 | -48.93928 | 6981 ft | 200 kts | 29° |
| 2026-04-27 21:55 | -11.43502 | -48.93296 | 6979 ft | 200 kts | 28° |
| 2026-04-27 21:56 | -11.42250 | -48.92665 | 6985 ft | 199 kts | 28° |
| 2026-04-27 21:56 | -11.39733 | -48.91396 | 6981 ft | 200 kts | 29° |
| 2026-04-27 21:56 | -11.38477 | -48.90763 | 6981 ft | 201 kts | 29° |
| 2026-04-27 21:57 | -11.37211 | -48.90125 | 6988 ft | 201 kts | 28° |
| 2026-04-27 21:57 | -11.35938 | -48.89483 | 6995 ft | 201 kts | 29° |
| 2026-04-27 21:57 | -11.34654 | -48.88835 | 6990 ft | 202 kts | 28° |
| 2026-04-27 21:57 | -11.33371 | -48.88190 | 6984 ft | 203 kts | 29° |
| 2026-04-27 21:58 | -11.32098 | -48.87547 | 6977 ft | 203 kts | 28° |
| 2026-04-27 21:58 | -11.30897 | -48.86942 | 6971 ft | 203 kts | 29° |
| 2026-04-27 21:58 | -11.29542 | -48.86260 | 6979 ft | 202 kts | 29° |
| 2026-04-27 21:58 | -11.28266 | -48.85617 | 6976 ft | 202 kts | 29° |
| 2026-04-27 21:59 | -11.27030 | -48.84994 | 6966 ft | 201 kts | 28° |
| 2026-04-27 21:59 | -11.25765 | -48.84358 | 6976 ft | 201 kts | 29° |
| 2026-04-27 21:59 | -11.24514 | -48.83728 | 6979 ft | 201 kts | 28° |
| 2026-04-27 21:59 | -11.23257 | -48.83095 | 6977 ft | 202 kts | 29° |
| 2026-04-27 22:00 | -11.21974 | -48.82448 | 6969 ft | 202 kts | 29° |
| 2026-04-27 22:00 | -11.20714 | -48.81814 | 6972 ft | 201 kts | 29° |
| 2026-04-27 22:00 | -11.19454 | -48.81181 | 6979 ft | 201 kts | 29° |
| 2026-04-27 22:00 | -11.18191 | -48.80545 | 6984 ft | 201 kts | 29° |
| 2026-04-27 22:01 | -11.16929 | -48.79909 | 6975 ft | 202 kts | 29° |
| 2026-04-27 22:01 | -11.15651 | -48.79266 | 6970 ft | 202 kts | 29° |
| 2026-04-27 22:01 | -11.14395 | -48.78634 | 6984 ft | 201 kts | 29° |
| 2026-04-27 22:01 | -11.13564 | -48.78216 | 6992 ft | 201 kts | 29° |
| 2026-04-27 22:02 | -11.11870 | -48.77364 | 6976 ft | 202 kts | 29° |
| 2026-04-27 22:02 | -11.10590 | -48.76720 | 6975 ft | 201 kts | 29° |
| 2026-04-27 22:02 | -11.09324 | -48.76083 | 6989 ft | 200 kts | 29° |
| 2026-04-27 22:02 | -11.08079 | -48.75457 | 6999 ft | 200 kts | 29° |
| 2026-04-27 22:03 | -11.06831 | -48.74829 | 7015 ft | 199 kts | 28° |
| 2026-04-27 22:03 | -11.05582 | -48.74201 | 7024 ft | 200 kts | 28° |
| 2026-04-27 22:03 | -11.04318 | -48.73566 | 7019 ft | 201 kts | 29° |
| 2026-04-27 22:03 | -11.03035 | -48.72920 | 7015 ft | 202 kts | 28° |
| 2026-04-27 22:04 | -11.01762 | -48.72280 | 7016 ft | 202 kts | 29° |
| 2026-04-27 22:04 | -11.00487 | -48.71640 | 7015 ft | 203 kts | 28° |
| 2026-04-27 22:04 | -10.99215 | -48.71000 | 7013 ft | 202 kts | 29° |
| 2026-04-27 22:04 | -10.97957 | -48.70369 | 7011 ft | 202 kts | 29° |
| 2026-04-27 22:05 | -10.96669 | -48.69721 | 7012 ft | 202 kts | 29° |
| 2026-04-27 22:05 | -10.95414 | -48.69090 | 7010 ft | 202 kts | 29° |
| 2026-04-27 22:05 | -10.94135 | -48.68448 | 7002 ft | 202 kts | 29° |
| 2026-04-27 22:05 | -10.92873 | -48.67813 | 7005 ft | 202 kts | 29° |
| 2026-04-27 22:06 | -10.91609 | -48.67178 | 7003 ft | 202 kts | 29° |
| 2026-04-27 22:06 | -10.90343 | -48.66542 | 7002 ft | 202 kts | 29° |
| 2026-04-27 22:06 | -10.89081 | -48.65909 | 7000 ft | 202 kts | 29° |
| 2026-04-27 22:06 | -10.87808 | -48.65270 | 6994 ft | 202 kts | 29° |
| 2026-04-27 22:07 | -10.86541 | -48.64633 | 6993 ft | 201 kts | 29° |
| 2026-04-27 22:07 | -10.85268 | -48.63995 | 6990 ft | 201 kts | 29° |
| 2026-04-27 22:07 | -10.84010 | -48.63363 | 6997 ft | 201 kts | 29° |
| 2026-04-27 22:07 | -10.82736 | -48.62724 | 7002 ft | 201 kts | 29° |
| 2026-04-27 22:08 | -10.81481 | -48.62093 | 6997 ft | 201 kts | 29° |
| 2026-04-27 22:08 | -10.80197 | -48.61449 | 6988 ft | 201 kts | 29° |
| 2026-04-27 22:08 | -10.78965 | -48.60831 | 6987 ft | 201 kts | 29° |
| 2026-04-27 22:08 | -10.77678 | -48.60185 | 6990 ft | 201 kts | 29° |
| 2026-04-27 22:09 | -10.76430 | -48.59558 | 6984 ft | 200 kts | 29° |
| 2026-04-27 22:09 | -10.75207 | -48.58946 | 6988 ft | 200 kts | 29° |
| 2026-04-27 22:09 | -10.73949 | -48.58314 | 6986 ft | 200 kts | 29° |
| 2026-04-27 22:09 | -10.72683 | -48.57678 | 6983 ft | 199 kts | 29° |
| 2026-04-27 22:10 | -10.71433 | -48.57047 | 6996 ft | 199 kts | 29° |
| 2026-04-27 22:10 | -10.70616 | -48.56634 | 7003 ft | 199 kts | 29° |
| 2026-04-27 22:10 | -10.68942 | -48.55792 | 6998 ft | 200 kts | 29° |
| 2026-04-27 22:10 | -10.67686 | -48.55161 | 6993 ft | 201 kts | 29° |
| 2026-04-27 22:11 | -10.66423 | -48.54527 | 6989 ft | 201 kts | 29° |
| 2026-04-27 22:11 | -10.65168 | -48.53898 | 6987 ft | 201 kts | 29° |
| 2026-04-27 22:11 | -10.63910 | -48.53267 | 6986 ft | 201 kts | 29° |
| 2026-04-27 22:11 | -10.62658 | -48.52640 | 6987 ft | 200 kts | 29° |
| 2026-04-27 22:12 | -10.61399 | -48.52008 | 6990 ft | 200 kts | 29° |
| 2026-04-27 22:12 | -10.60146 | -48.51381 | 6984 ft | 200 kts | 29° |
| 2026-04-27 22:12 | -10.58868 | -48.50740 | 6983 ft | 200 kts | 29° |
| 2026-04-27 22:12 | -10.57615 | -48.50113 | 6986 ft | 200 kts | 29° |
| 2026-04-27 22:13 | -10.56367 | -48.49487 | 6983 ft | 200 kts | 29° |
| 2026-04-27 22:13 | -10.55110 | -48.48858 | 6988 ft | 199 kts | 29° |
| 2026-04-27 22:13 | -10.53866 | -48.48235 | 6989 ft | 199 kts | 29° |
| 2026-04-27 22:13 | -10.52589 | -48.47595 | 6990 ft | 199 kts | 29° |
| 2026-04-27 22:14 | -10.51333 | -48.46966 | 6992 ft | 199 kts | 29° |
| 2026-04-27 22:14 | -10.50094 | -48.46346 | 6988 ft | 199 kts | 29° |
| 2026-04-27 22:14 | -10.48829 | -48.45712 | 6989 ft | 199 kts | 29° |
| 2026-04-27 22:14 | -10.47770 | -48.44883 | 6968 ft | 194 kts | 59° |
| 2026-04-27 22:15 | -10.47328 | -48.43563 | 6857 ft | 197 kts | 82° |
| 2026-04-27 22:15 | -10.47244 | -48.42151 | 6733 ft | 201 kts | 90° |
| 2026-04-27 22:15 | -10.47289 | -48.40727 | 6611 ft | 200 kts | 93° |
| 2026-04-27 22:15 | -10.47383 | -48.39306 | 6373 ft | 205 kts | 94° |
| 2026-04-27 22:16 | -10.47498 | -48.37864 | 6107 ft | 209 kts | 94° |
| 2026-04-27 22:16 | -10.47625 | -48.36364 | 5837 ft | 212 kts | 94° |
| 2026-04-27 22:16 | -10.47754 | -48.34893 | 5565 ft | 203 kts | 94° |
| 2026-04-27 22:16 | -10.47877 | -48.33481 | 5291 ft | 198 kts | 94° |
| 2026-04-27 22:17 | -10.48000 | -48.32077 | 5009 ft | 195 kts | 94° |
| 2026-04-27 22:17 | -10.48119 | -48.30711 | 4720 ft | 193 kts | 94° |
| 2026-04-27 22:17 | -10.48237 | -48.29359 | 4437 ft | 192 kts | 94° |
| 2026-04-27 22:17 | -10.48354 | -48.28015 | 4152 ft | 192 kts | 94° |
| 2026-04-27 22:18 | -10.48472 | -48.26662 | 3892 ft | 190 kts | 94° |
| 2026-04-27 22:18 | -10.48588 | -48.25322 | 3943 ft | 187 kts | 94° |
| 2026-04-27 22:18 | -10.48597 | -48.24030 | 3982 ft | 185 kts | 75° |
| 2026-04-27 22:18 | -10.47818 | -48.22981 | 3748 ft | 192 kts | 32° |
| 2026-04-27 22:19 | -10.46551 | -48.22522 | 3500 ft | 191 kts | 16° |
| 2026-04-27 22:19 | -10.45330 | -48.22205 | 3490 ft | 178 kts | 15° |
| 2026-04-27 22:19 | -10.44181 | -48.21918 | 3552 ft | 166 kts | 15° |
| 2026-04-27 22:19 | -10.43027 | -48.21635 | 3575 ft | 169 kts | 15° |
| 2026-04-27 22:20 | -10.41863 | -48.21351 | 3574 ft | 174 kts | 15° |
| 2026-04-27 22:20 | -10.40675 | -48.21062 | 3564 ft | 171 kts | 15° |
| 2026-04-27 22:20 | -10.39518 | -48.20952 | 3594 ft | 162 kts | 349° |
| 2026-04-27 22:20 | -10.38603 | -48.21570 | 3570 ft | 160 kts | 313° |
| 2026-04-27 22:21 | -10.37947 | -48.22431 | 3552 ft | 149 kts | 308° |
| 2026-04-27 22:21 | -10.37366 | -48.23266 | 3558 ft | 141 kts | 307° |
| 2026-04-27 22:21 | -10.36800 | -48.24102 | 3409 ft | 142 kts | 307° |
| 2026-04-27 22:21 | -10.36258 | -48.24912 | 3216 ft | 137 kts | 306° |
| 2026-04-27 22:22 | -10.35733 | -48.25709 | 3014 ft | 134 kts | 306° |
| 2026-04-27 22:22 | -10.35208 | -48.26504 | 2809 ft | 136 kts | 305° |
| 2026-04-27 22:22 | -10.34677 | -48.27306 | 2583 ft | 137 kts | 305° |
| 2026-04-27 22:22 | -10.34148 | -48.28107 | 2352 ft | 135 kts | 304° |
| 2026-04-27 22:23 | -10.33625 | -48.28904 | 2110 ft | 135 kts | 303° |
| 2026-04-27 22:23 | -10.33113 | -48.29685 | 1926 ft | 130 kts | 303° |
| 2026-04-27 22:23 | -10.32620 | -48.30435 | 1752 ft | 126 kts | 303° |
| 2026-04-27 22:23 | -10.32129 | -48.31185 | 1594 ft | 127 kts | 303° |
| 2026-04-27 22:24 | -10.31663 | -48.31912 | 1411 ft | 129 kts | 303° |
| 2026-04-27 22:24 | -10.31142 | -48.32639 | 1280 ft | 122 kts | 305° |
| 2026-04-27 22:24 | -10.31029 | -48.32803 | 1255 ft | 122 kts | 304° |
| 2026-04-27 22:24 | -10.30775 | -48.33206 | 1187 ft | 120 kts | 299° |
| 2026-04-27 22:25 | -10.30299 | -48.33959 | 997 ft | 127 kts | 304° |
| 2026-04-27 22:25 | -10.29810 | -48.34704 | 825 ft | 125 kts | 301° |
| 2026-04-27 22:25 | -10.29386 | -48.35355 | 779 ft | 80 kts | 303° |
| 2026-04-27 22:25 | -10.29171 | -48.35681 | 779 ft | 49 kts | 302° |
| 2026-04-27 22:26 | -10.29023 | -48.35891 | 779 ft | 16 kts | 305° |
| 2026-04-27 22:26 | -10.28955 | -48.35995 | 779 ft | 19 kts | 301° |
| 2026-04-27 22:26 | -10.28880 | -48.36124 | 779 ft | 22 kts | 303° |
| 2026-04-27 22:26 | -10.28785 | -48.36270 | 779 ft | 26 kts | 304° |
| 2026-04-27 22:27 | -10.28715 | -48.36377 | 779 ft | 27 kts | 304° |
| 2026-04-27 22:27 | -10.28597 | -48.36570 | 779 ft | 16 kts | 288° |
| 2026-04-27 22:27 | -10.28557 | -48.36642 | 779 ft | 17 kts | 52° |
| 2026-04-27 22:27 | -10.28623 | -48.36521 | 779 ft | 22 kts | 124° |
| 2026-04-27 22:28 | -10.28713 | -48.36382 | 779 ft | 26 kts | 122° |
| 2026-04-27 22:28 | -10.28821 | -48.36215 | 779 ft | 29 kts | 124° |
| 2026-04-27 22:28 | -10.28940 | -48.36035 | 779 ft | 31 kts | 124° |
| 2026-04-27 22:28 | -10.29029 | -48.35902 | 779 ft | 20 kts | 126° |
| 2026-04-27 22:29 | -10.29103 | -48.35800 | 779 ft | 20 kts | 125° |
| 2026-04-27 22:29 | -10.29188 | -48.35728 | 779 ft | 15 kts | 202° |
| 2026-04-27 22:29 | -10.29269 | -48.35778 | 779 ft | 14 kts | 210° |
| 2026-04-27 22:29 | -10.29350 | -48.35818 | 779 ft | 6 kts | 176° |
| 2026-04-27 22:30 | -10.29402 | -48.35833 | 779 ft | 6 kts | 216° |
| 2026-04-27 22:30 | -10.29420 | -48.35846 | 779 ft | 0 kts | 212° |